sensor_id;sensor_type;location;lat;lon;timestamp;temperature;humidity
59025;DHT22;44806;48.008;13.666;2023-06-26T00:00:12;17.90;91.60
59025;DHT22;44806;48.008;13.666;2023-06-26T00:02:39;18.00;91.60
59025;DHT22;44806;48.008;13.666;2023-06-26T00:05:07;18.00;91.60
59025;DHT22;44806;48.008;13.666;2023-06-26T00:07:34;18.00;91.70
59025;DHT22;44806;48.008;13.666;2023-06-26T00:10:01;18.00;91.80
59025;DHT22;44806;48.008;13.666;2023-06-26T00:12:29;18.00;91.90
59025;DHT22;44806;48.008;13.666;2023-06-26T00:14:58;18.00;91.80
59025;DHT22;44806;48.008;13.666;2023-06-26T00:17:25;18.00;92.10
59025;DHT22;44806;48.008;13.666;2023-06-26T00:19:52;18.00;91.90
59025;DHT22;44806;48.008;13.666;2023-06-26T00:22:20;17.90;91.70
59025;DHT22;44806;48.008;13.666;2023-06-26T00:24:47;17.90;91.70
59025;DHT22;44806;48.008;13.666;2023-06-26T00:27:15;17.90;91.70
59025;DHT22;44806;48.008;13.666;2023-06-26T00:29:41;17.90;92.00
59025;DHT22;44806;48.008;13.666;2023-06-26T00:32:10;17.80;92.20
59025;DHT22;44806;48.008;13.666;2023-06-26T00:34:37;17.60;93.00
59025;DHT22;44806;48.008;13.666;2023-06-26T00:37:04;17.60;93.00
59025;DHT22;44806;48.008;13.666;2023-06-26T00:39:31;17.60;93.00
59025;DHT22;44806;48.008;13.666;2023-06-26T00:41:59;17.60;93.00
59025;DHT22;44806;48.008;13.666;2023-06-26T00:44:26;17.60;93.20
59025;DHT22;44806;48.008;13.666;2023-06-26T00:46:53;17.60;93.00
59025;DHT22;44806;48.008;13.666;2023-06-26T00:49:21;17.50;93.50
59025;DHT22;44806;48.008;13.666;2023-06-26T00:51:48;17.40;94.10
59025;DHT22;44806;48.008;13.666;2023-06-26T00:54:16;17.20;94.70
59025;DHT22;44806;48.008;13.666;2023-06-26T00:56:45;17.10;95.30
59025;DHT22;44806;48.008;13.666;2023-06-26T00:59:13;17.00;95.40
59025;DHT22;44806;48.008;13.666;2023-06-26T01:01:40;17.00;95.50
59025;DHT22;44806;48.008;13.666;2023-06-26T01:04:07;16.90;96.10
59025;DHT22;44806;48.008;13.666;2023-06-26T01:06:46;17.00;96.30
59025;DHT22;44806;48.008;13.666;2023-06-26T01:09:16;16.90;96.50
59025;DHT22;44806;48.008;13.666;2023-06-26T01:11:44;16.80;96.90
59025;DHT22;44806;48.008;13.666;2023-06-26T01:14:11;16.60;97.50
59025;DHT22;44806;48.008;13.666;2023-06-26T01:16:39;16.40;98.30
59025;DHT22;44806;48.008;13.666;2023-06-26T01:19:11;16.50;98.30
59025;DHT22;44806;48.008;13.666;2023-06-26T01:21:43;16.50;98.50
59025;DHT22;44806;48.008;13.666;2023-06-26T01:24:16;16.60;98.10
59025;DHT22;44806;48.008;13.666;2023-06-26T01:26:49;16.70;97.80
59025;DHT22;44806;48.008;13.666;2023-06-26T01:29:17;16.70;97.90
59025;DHT22;44806;48.008;13.666;2023-06-26T01:31:45;16.60;98.60
59025;DHT22;44806;48.008;13.666;2023-06-26T01:34:15;16.60;98.10
59025;DHT22;44806;48.008;13.666;2023-06-26T01:36:42;16.70;98.00
59025;DHT22;44806;48.008;13.666;2023-06-26T01:39:10;16.60;98.30
59025;DHT22;44806;48.008;13.666;2023-06-26T01:41:37;16.60;98.80
59025;DHT22;44806;48.008;13.666;2023-06-26T01:44:14;16.40;98.90
59025;DHT22;44806;48.008;13.666;2023-06-26T01:46:52;16.50;98.50
59025;DHT22;44806;48.008;13.666;2023-06-26T01:49:27;16.50;98.60
59025;DHT22;44806;48.008;13.666;2023-06-26T01:52:06;16.40;99.10
59025;DHT22;44806;48.008;13.666;2023-06-26T01:54:39;16.20;99.60
59025;DHT22;44806;48.008;13.666;2023-06-26T01:57:10;16.20;99.80
59025;DHT22;44806;48.008;13.666;2023-06-26T01:59:40;16.10;99.90
59025;DHT22;44806;48.008;13.666;2023-06-26T02:02:09;16.00;99.90
59025;DHT22;44806;48.008;13.666;2023-06-26T02:04:36;16.00;99.90
59025;DHT22;44806;48.008;13.666;2023-06-26T02:07:03;16.00;99.90
59025;DHT22;44806;48.008;13.666;2023-06-26T02:09:30;16.20;99.90
59025;DHT22;44806;48.008;13.666;2023-06-26T02:11:57;16.20;99.80
59025;DHT22;44806;48.008;13.666;2023-06-26T02:14:24;16.30;99.70
59025;DHT22;44806;48.008;13.666;2023-06-26T02:16:52;16.30;99.30
59025;DHT22;44806;48.008;13.666;2023-06-26T02:19:19;16.40;99.10
59025;DHT22;44806;48.008;13.666;2023-06-26T02:21:47;16.30;99.80
59025;DHT22;44806;48.008;13.666;2023-06-26T02:24:14;16.30;99.80
59025;DHT22;44806;48.008;13.666;2023-06-26T02:26:41;16.30;99.40
59025;DHT22;44806;48.008;13.666;2023-06-26T02:29:08;16.30;99.10
59025;DHT22;44806;48.008;13.666;2023-06-26T02:34:43;16.40;99.30
59025;DHT22;44806;48.008;13.666;2023-06-26T02:37:10;16.40;99.20
59025;DHT22;44806;48.008;13.666;2023-06-26T02:39:37;16.40;99.00
59025;DHT22;44806;48.008;13.666;2023-06-26T02:42:04;16.30;99.00
59025;DHT22;44806;48.008;13.666;2023-06-26T02:44:31;16.30;99.20
59025;DHT22;44806;48.008;13.666;2023-06-26T02:46:58;16.30;98.80
59025;DHT22;44806;48.008;13.666;2023-06-26T02:49:25;16.30;98.50
59025;DHT22;44806;48.008;13.666;2023-06-26T02:51:53;16.30;98.00
59025;DHT22;44806;48.008;13.666;2023-06-26T02:54:20;16.30;97.70
59025;DHT22;44806;48.008;13.666;2023-06-26T02:56:47;16.30;97.70
59025;DHT22;44806;48.008;13.666;2023-06-26T02:59:15;16.30;98.10
59025;DHT22;44806;48.008;13.666;2023-06-26T03:01:41;16.30;98.60
59025;DHT22;44806;48.008;13.666;2023-06-26T03:04:08;16.30;98.80
59025;DHT22;44806;48.008;13.666;2023-06-26T03:06:36;16.30;98.80
59025;DHT22;44806;48.008;13.666;2023-06-26T03:09:04;16.30;98.70
59025;DHT22;44806;48.008;13.666;2023-06-26T03:11:31;16.30;98.70
59025;DHT22;44806;48.008;13.666;2023-06-26T03:13:58;16.20;98.00
59025;DHT22;44806;48.008;13.666;2023-06-26T03:16:25;16.20;98.30
59025;DHT22;44806;48.008;13.666;2023-06-26T03:18:52;16.20;98.20
59025;DHT22;44806;48.008;13.666;2023-06-26T03:21:19;16.20;98.40
59025;DHT22;44806;48.008;13.666;2023-06-26T03:23:45;16.20;98.60
59025;DHT22;44806;48.008;13.666;2023-06-26T03:26:14;16.20;98.50
59025;DHT22;44806;48.008;13.666;2023-06-26T03:28:41;16.20;98.80
59025;DHT22;44806;48.008;13.666;2023-06-26T03:31:08;16.20;98.70
59025;DHT22;44806;48.008;13.666;2023-06-26T03:33:36;16.20;98.70
59025;DHT22;44806;48.008;13.666;2023-06-26T03:36:04;16.20;98.90
59025;DHT22;44806;48.008;13.666;2023-06-26T03:38:31;16.10;99.10
59025;DHT22;44806;48.008;13.666;2023-06-26T03:40:58;16.20;99.00
59025;DHT22;44806;48.008;13.666;2023-06-26T03:43:26;16.20;98.90
59025;DHT22;44806;48.008;13.666;2023-06-26T03:45:53;16.20;98.70
59025;DHT22;44806;48.008;13.666;2023-06-26T03:48:20;16.20;98.80
59025;DHT22;44806;48.008;13.666;2023-06-26T03:50:47;16.10;98.70
59025;DHT22;44806;48.008;13.666;2023-06-26T03:53:14;16.20;98.80
59025;DHT22;44806;48.008;13.666;2023-06-26T03:55:41;16.20;98.80
59025;DHT22;44806;48.008;13.666;2023-06-26T03:58:08;16.20;98.70
59025;DHT22;44806;48.008;13.666;2023-06-26T04:00:36;16.20;98.90
59025;DHT22;44806;48.008;13.666;2023-06-26T04:03:03;16.20;99.20
59025;DHT22;44806;48.008;13.666;2023-06-26T04:05:30;16.20;99.00
59025;DHT22;44806;48.008;13.666;2023-06-26T04:07:57;16.20;98.70
59025;DHT22;44806;48.008;13.666;2023-06-26T04:10:24;16.20;98.90
59025;DHT22;44806;48.008;13.666;2023-06-26T04:12:51;16.20;99.20
59025;DHT22;44806;48.008;13.666;2023-06-26T04:15:18;16.20;99.40
59025;DHT22;44806;48.008;13.666;2023-06-26T04:17:46;16.20;99.50
59025;DHT22;44806;48.008;13.666;2023-06-26T04:20:13;16.20;99.00
59025;DHT22;44806;48.008;13.666;2023-06-26T04:22:40;16.30;99.10
59025;DHT22;44806;48.008;13.666;2023-06-26T04:25:07;16.30;99.00
59025;DHT22;44806;48.008;13.666;2023-06-26T04:27:34;16.30;99.10
59025;DHT22;44806;48.008;13.666;2023-06-26T04:30:01;16.40;99.10
59025;DHT22;44806;48.008;13.666;2023-06-26T04:32:28;16.40;99.30
59025;DHT22;44806;48.008;13.666;2023-06-26T04:34:57;16.40;99.30
59025;DHT22;44806;48.008;13.666;2023-06-26T04:37:24;16.30;99.40
59025;DHT22;44806;48.008;13.666;2023-06-26T04:39:51;16.30;99.50
59025;DHT22;44806;48.008;13.666;2023-06-26T04:42:18;16.40;99.50
59025;DHT22;44806;48.008;13.666;2023-06-26T04:44:47;16.60;99.60
59025;DHT22;44806;48.008;13.666;2023-06-26T04:47:14;16.60;99.30
59025;DHT22;44806;48.008;13.666;2023-06-26T04:49:42;16.70;99.30
59025;DHT22;44806;48.008;13.666;2023-06-26T04:52:13;16.80;98.90
59025;DHT22;44806;48.008;13.666;2023-06-26T04:54:40;16.90;99.40
59025;DHT22;44806;48.008;13.666;2023-06-26T04:57:07;17.00;98.60
59025;DHT22;44806;48.008;13.666;2023-06-26T04:59:35;17.10;98.80
59025;DHT22;44806;48.008;13.666;2023-06-26T05:02:02;17.10;98.60
59025;DHT22;44806;48.008;13.666;2023-06-26T05:04:30;17.20;98.60
59025;DHT22;44806;48.008;13.666;2023-06-26T05:06:57;17.30;98.10
59025;DHT22;44806;48.008;13.666;2023-06-26T05:09:26;17.40;98.30
59025;DHT22;44806;48.008;13.666;2023-06-26T05:11:52;17.50;98.60
59025;DHT22;44806;48.008;13.666;2023-06-26T05:14:19;17.60;98.00
59025;DHT22;44806;48.008;13.666;2023-06-26T05:16:46;17.70;97.80
59025;DHT22;44806;48.008;13.666;2023-06-26T05:19:13;17.80;97.30
59025;DHT22;44806;48.008;13.666;2023-06-26T05:21:40;17.90;97.80
59025;DHT22;44806;48.008;13.666;2023-06-26T05:24:09;18.00;97.40
59025;DHT22;44806;48.008;13.666;2023-06-26T05:26:38;18.00;97.30
59025;DHT22;44806;48.008;13.666;2023-06-26T05:29:05;18.10;97.20
59025;DHT22;44806;48.008;13.666;2023-06-26T05:31:33;18.20;97.30
59025;DHT22;44806;48.008;13.666;2023-06-26T05:34:03;18.30;96.50
59025;DHT22;44806;48.008;13.666;2023-06-26T05:36:31;18.40;97.00
59025;DHT22;44806;48.008;13.666;2023-06-26T05:39:00;18.50;96.30
59025;DHT22;44806;48.008;13.666;2023-06-26T05:41:28;18.60;96.10
59025;DHT22;44806;48.008;13.666;2023-06-26T05:43:56;18.70;96.30
59025;DHT22;44806;48.008;13.666;2023-06-26T05:46:23;18.80;96.00
59025;DHT22;44806;48.008;13.666;2023-06-26T05:48:50;18.90;95.40
59025;DHT22;44806;48.008;13.666;2023-06-26T05:51:18;19.10;95.60
59025;DHT22;44806;48.008;13.666;2023-06-26T05:53:45;19.20;95.50
59025;DHT22;44806;48.008;13.666;2023-06-26T05:56:13;19.30;95.10
59025;DHT22;44806;48.008;13.666;2023-06-26T05:58:41;19.40;94.40
59025;DHT22;44806;48.008;13.666;2023-06-26T06:01:10;19.50;94.30
59025;DHT22;44806;48.008;13.666;2023-06-26T06:03:39;19.70;93.90
59025;DHT22;44806;48.008;13.666;2023-06-26T06:06:06;19.70;94.00
59025;DHT22;44806;48.008;13.666;2023-06-26T06:08:33;19.90;93.90
59025;DHT22;44806;48.008;13.666;2023-06-26T06:11:00;20.00;93.50
59025;DHT22;44806;48.008;13.666;2023-06-26T06:13:27;20.10;93.00
59025;DHT22;44806;48.008;13.666;2023-06-26T06:15:54;20.30;92.30
59025;DHT22;44806;48.008;13.666;2023-06-26T06:18:23;20.30;92.20
59025;DHT22;44806;48.008;13.666;2023-06-26T06:20:50;20.50;92.30
59025;DHT22;44806;48.008;13.666;2023-06-26T06:23:17;20.60;92.20
59025;DHT22;44806;48.008;13.666;2023-06-26T06:25:44;20.70;92.80
59025;DHT22;44806;48.008;13.666;2023-06-26T06:28:11;20.80;91.90
59025;DHT22;44806;48.008;13.666;2023-06-26T06:30:38;21.00;91.70
59025;DHT22;44806;48.008;13.666;2023-06-26T06:33:04;21.10;91.70
59025;DHT22;44806;48.008;13.666;2023-06-26T06:35:33;21.20;91.50
59025;DHT22;44806;48.008;13.666;2023-06-26T06:38:00;21.30;90.30
59025;DHT22;44806;48.008;13.666;2023-06-26T06:40:26;21.50;91.00
59025;DHT22;44806;48.008;13.666;2023-06-26T06:42:53;21.60;91.00
59025;DHT22;44806;48.008;13.666;2023-06-26T06:45:20;21.70;89.10
59025;DHT22;44806;48.008;13.666;2023-06-26T06:47:47;21.80;88.50
59025;DHT22;44806;48.008;13.666;2023-06-26T06:50:14;22.00;86.80
59025;DHT22;44806;48.008;13.666;2023-06-26T06:52:43;22.10;86.90
59025;DHT22;44806;48.008;13.666;2023-06-26T06:55:10;22.20;85.10
59025;DHT22;44806;48.008;13.666;2023-06-26T06:57:38;22.30;82.90
59025;DHT22;44806;48.008;13.666;2023-06-26T07:00:07;22.30;82.20
59025;DHT22;44806;48.008;13.666;2023-06-26T07:02:35;22.50;82.70
59025;DHT22;44806;48.008;13.666;2023-06-26T07:05:02;22.60;82.30
59025;DHT22;44806;48.008;13.666;2023-06-26T07:07:31;22.70;80.60
59025;DHT22;44806;48.008;13.666;2023-06-26T07:10:00;22.80;80.20
59025;DHT22;44806;48.008;13.666;2023-06-26T07:12:28;23.00;82.10
59025;DHT22;44806;48.008;13.666;2023-06-26T07:14:55;23.10;78.80
59025;DHT22;44806;48.008;13.666;2023-06-26T07:17:23;23.20;79.00
59025;DHT22;44806;48.008;13.666;2023-06-26T07:19:50;23.40;80.10
59025;DHT22;44806;48.008;13.666;2023-06-26T07:22:17;23.40;75.30
59025;DHT22;44806;48.008;13.666;2023-06-26T07:24:45;23.50;78.10
59025;DHT22;44806;48.008;13.666;2023-06-26T07:27:14;23.70;79.30
59025;DHT22;44806;48.008;13.666;2023-06-26T07:29:41;23.80;79.30
59025;DHT22;44806;48.008;13.666;2023-06-26T07:32:08;23.90;76.00
59025;DHT22;44806;48.008;13.666;2023-06-26T07:34:35;24.00;77.30
59025;DHT22;44806;48.008;13.666;2023-06-26T07:37:02;24.10;74.50
59025;DHT22;44806;48.008;13.666;2023-06-26T07:39:30;24.20;70.40
59025;DHT22;44806;48.008;13.666;2023-06-26T07:41:57;24.20;70.80
59025;DHT22;44806;48.008;13.666;2023-06-26T07:44:26;24.20;70.30
59025;DHT22;44806;48.008;13.666;2023-06-26T07:46:53;24.40;71.10
59025;DHT22;44806;48.008;13.666;2023-06-26T07:49:20;24.50;72.00
59025;DHT22;44806;48.008;13.666;2023-06-26T07:51:47;24.70;70.50
59025;DHT22;44806;48.008;13.666;2023-06-26T07:54:14;24.70;69.20
59025;DHT22;44806;48.008;13.666;2023-06-26T07:56:53;24.90;71.70
59025;DHT22;44806;48.008;13.666;2023-06-26T07:59:21;25.10;71.40
59025;DHT22;44806;48.008;13.666;2023-06-26T08:01:50;25.20;70.20
59025;DHT22;44806;48.008;13.666;2023-06-26T08:04:18;25.40;70.30
59025;DHT22;44806;48.008;13.666;2023-06-26T08:06:47;25.50;68.20
59025;DHT22;44806;48.008;13.666;2023-06-26T08:09:14;25.60;69.60
59025;DHT22;44806;48.008;13.666;2023-06-26T08:11:41;25.80;68.20
59025;DHT22;44806;48.008;13.666;2023-06-26T08:14:08;25.90;68.30
59025;DHT22;44806;48.008;13.666;2023-06-26T08:16:35;26.10;69.00
59025;DHT22;44806;48.008;13.666;2023-06-26T08:19:03;26.10;66.10
59025;DHT22;44806;48.008;13.666;2023-06-26T08:21:30;26.10;63.30
59025;DHT22;44806;48.008;13.666;2023-06-26T08:23:57;26.10;61.70
59025;DHT22;44806;48.008;13.666;2023-06-26T08:26:24;26.10;64.50
59025;DHT22;44806;48.008;13.666;2023-06-26T08:28:51;26.30;64.40
59025;DHT22;44806;48.008;13.666;2023-06-26T08:31:18;26.60;67.80
59025;DHT22;44806;48.008;13.666;2023-06-26T08:33:45;26.80;61.70
59025;DHT22;44806;48.008;13.666;2023-06-26T08:36:13;26.90;60.70
59025;DHT22;44806;48.008;13.666;2023-06-26T08:38:40;26.90;62.00
59025;DHT22;44806;48.008;13.666;2023-06-26T08:41:07;27.00;61.50
59025;DHT22;44806;48.008;13.666;2023-06-26T08:43:35;27.00;60.80
59025;DHT22;44806;48.008;13.666;2023-06-26T08:46:02;27.10;58.80
59025;DHT22;44806;48.008;13.666;2023-06-26T08:48:32;27.20;59.10
59025;DHT22;44806;48.008;13.666;2023-06-26T08:51:01;27.20;57.80
59025;DHT22;44806;48.008;13.666;2023-06-26T08:53:43;27.20;58.00
59025;DHT22;44806;48.008;13.666;2023-06-26T08:56:17;27.40;57.70
59025;DHT22;44806;48.008;13.666;2023-06-26T08:58:47;27.50;56.60
59025;DHT22;44806;48.008;13.666;2023-06-26T09:01:14;27.70;57.60
59025;DHT22;44806;48.008;13.666;2023-06-26T09:03:41;27.60;55.60
59025;DHT22;44806;48.008;13.666;2023-06-26T09:06:08;27.50;56.20
59025;DHT22;44806;48.008;13.666;2023-06-26T09:08:36;27.70;56.50
59025;DHT22;44806;48.008;13.666;2023-06-26T09:11:03;27.80;55.60
59025;DHT22;44806;48.008;13.666;2023-06-26T09:13:30;27.90;56.20
59025;DHT22;44806;48.008;13.666;2023-06-26T09:15:58;28.00;55.00
59025;DHT22;44806;48.008;13.666;2023-06-26T09:18:25;28.00;56.60
59025;DHT22;44806;48.008;13.666;2023-06-26T09:20:52;28.10;57.70
59025;DHT22;44806;48.008;13.666;2023-06-26T09:23:21;28.20;53.70
59025;DHT22;44806;48.008;13.666;2023-06-26T09:25:51;28.30;56.10
59025;DHT22;44806;48.008;13.666;2023-06-26T09:28:18;28.60;58.30
59025;DHT22;44806;48.008;13.666;2023-06-26T09:30:45;28.70;55.50
59025;DHT22;44806;48.008;13.666;2023-06-26T09:33:16;28.70;55.90
59025;DHT22;44806;48.008;13.666;2023-06-26T09:35:44;28.70;56.10
59025;DHT22;44806;48.008;13.666;2023-06-26T09:38:12;28.80;54.60
59025;DHT22;44806;48.008;13.666;2023-06-26T09:40:39;28.90;55.80
59025;DHT22;44806;48.008;13.666;2023-06-26T09:43:12;28.90;53.80
59025;DHT22;44806;48.008;13.666;2023-06-26T09:45:39;28.80;52.70
59025;DHT22;44806;48.008;13.666;2023-06-26T09:48:07;28.80;54.40
59025;DHT22;44806;48.008;13.666;2023-06-26T09:50:34;29.00;55.60
59025;DHT22;44806;48.008;13.666;2023-06-26T09:53:07;29.00;52.30
59025;DHT22;44806;48.008;13.666;2023-06-26T09:55:36;29.00;52.50
59025;DHT22;44806;48.008;13.666;2023-06-26T09:58:03;29.10;54.10
59025;DHT22;44806;48.008;13.666;2023-06-26T10:00:32;29.20;54.00
59025;DHT22;44806;48.008;13.666;2023-06-26T10:02:59;29.20;54.60
59025;DHT22;44806;48.008;13.666;2023-06-26T10:05:26;29.30;51.70
59025;DHT22;44806;48.008;13.666;2023-06-26T10:07:54;29.30;52.40
59025;DHT22;44806;48.008;13.666;2023-06-26T10:10:22;29.30;51.60
59025;DHT22;44806;48.008;13.666;2023-06-26T10:12:53;29.10;53.20
59025;DHT22;44806;48.008;13.666;2023-06-26T10:15:23;29.30;52.80
59025;DHT22;44806;48.008;13.666;2023-06-26T10:17:55;29.50;55.00
59025;DHT22;44806;48.008;13.666;2023-06-26T10:20:23;29.70;53.40
59025;DHT22;44806;48.008;13.666;2023-06-26T10:22:52;29.90;53.70
59025;DHT22;44806;48.008;13.666;2023-06-26T10:25:23;30.20;52.90
59025;DHT22;44806;48.008;13.666;2023-06-26T10:27:54;30.30;49.40
59025;DHT22;44806;48.008;13.666;2023-06-26T10:30:24;30.10;52.10
59025;DHT22;44806;48.008;13.666;2023-06-26T10:32:55;30.10;50.20
59025;DHT22;44806;48.008;13.666;2023-06-26T10:35:23;30.40;52.60
59025;DHT22;44806;48.008;13.666;2023-06-26T10:37:51;30.50;54.90
59025;DHT22;44806;48.008;13.666;2023-06-26T10:40:23;30.70;54.00
59025;DHT22;44806;48.008;13.666;2023-06-26T10:42:51;30.90;51.10
59025;DHT22;44806;48.008;13.666;2023-06-26T10:45:33;31.10;51.20
59025;DHT22;44806;48.008;13.666;2023-06-26T10:48:02;31.20;49.80
59025;DHT22;44806;48.008;13.666;2023-06-26T10:50:31;31.10;49.20
59025;DHT22;44806;48.008;13.666;2023-06-26T10:53:15;31.00;49.10
59025;DHT22;44806;48.008;13.666;2023-06-26T10:55:49;30.60;51.50
59025;DHT22;44806;48.008;13.666;2023-06-26T10:58:33;30.70;51.00
59025;DHT22;44806;48.008;13.666;2023-06-26T11:01:20;31.00;50.30
59025;DHT22;44806;48.008;13.666;2023-06-26T11:04:00;31.10;54.20
59025;DHT22;44806;48.008;13.666;2023-06-26T11:06:28;31.20;49.90
59025;DHT22;44806;48.008;13.666;2023-06-26T11:09:00;31.20;51.50
59025;DHT22;44806;48.008;13.666;2023-06-26T11:11:58;31.10;49.90
59025;DHT22;44806;48.008;13.666;2023-06-26T11:14:30;31.30;49.80
59025;DHT22;44806;48.008;13.666;2023-06-26T11:16:58;31.60;49.10
59025;DHT22;44806;48.008;13.666;2023-06-26T11:19:27;31.60;49.40
59025;DHT22;44806;48.008;13.666;2023-06-26T11:22:04;31.80;50.00
59025;DHT22;44806;48.008;13.666;2023-06-26T11:24:32;31.60;50.30
59025;DHT22;44806;48.008;13.666;2023-06-26T11:27:05;31.60;46.40
59025;DHT22;44806;48.008;13.666;2023-06-26T11:29:32;30.70;45.80
59025;DHT22;44806;48.008;13.666;2023-06-26T11:32:04;30.90;51.20
59025;DHT22;44806;48.008;13.666;2023-06-26T11:34:34;31.20;49.30
59025;DHT22;44806;48.008;13.666;2023-06-26T11:37:03;31.40;47.30
59025;DHT22;44806;48.008;13.666;2023-06-26T11:39:30;31.50;47.20
59025;DHT22;44806;48.008;13.666;2023-06-26T11:41:58;31.70;46.00
59025;DHT22;44806;48.008;13.666;2023-06-26T11:44:29;31.60;46.70
59025;DHT22;44806;48.008;13.666;2023-06-26T11:46:56;31.70;50.20
59025;DHT22;44806;48.008;13.666;2023-06-26T11:49:24;31.90;46.80
59025;DHT22;44806;48.008;13.666;2023-06-26T11:51:53;32.20;50.40
59025;DHT22;44806;48.008;13.666;2023-06-26T11:54:25;32.30;46.10
59025;DHT22;44806;48.008;13.666;2023-06-26T11:56:57;32.10;46.60
59025;DHT22;44806;48.008;13.666;2023-06-26T11:59:31;32.20;47.80
59025;DHT22;44806;48.008;13.666;2023-06-26T12:01:58;32.20;48.00
59025;DHT22;44806;48.008;13.666;2023-06-26T12:04:25;32.10;43.90
59025;DHT22;44806;48.008;13.666;2023-06-26T12:06:54;31.90;45.60
59025;DHT22;44806;48.008;13.666;2023-06-26T12:09:23;31.50;48.20
59025;DHT22;44806;48.008;13.666;2023-06-26T12:11:53;31.30;45.60
59025;DHT22;44806;48.008;13.666;2023-06-26T12:14:20;31.10;45.80
59025;DHT22;44806;48.008;13.666;2023-06-26T12:16:48;30.80;47.20
59025;DHT22;44806;48.008;13.666;2023-06-26T12:19:15;31.20;49.40
59025;DHT22;44806;48.008;13.666;2023-06-26T12:21:48;31.30;47.60
59025;DHT22;44806;48.008;13.666;2023-06-26T12:24:21;31.50;45.80
59025;DHT22;44806;48.008;13.666;2023-06-26T12:26:50;31.50;46.10
59025;DHT22;44806;48.008;13.666;2023-06-26T12:29:20;31.70;46.70
59025;DHT22;44806;48.008;13.666;2023-06-26T12:31:49;31.90;46.30
59025;DHT22;44806;48.008;13.666;2023-06-26T12:34:19;32.30;47.20
59025;DHT22;44806;48.008;13.666;2023-06-26T12:36:47;31.90;44.50
59025;DHT22;44806;48.008;13.666;2023-06-26T12:39:16;31.30;46.00
59025;DHT22;44806;48.008;13.666;2023-06-26T12:41:51;31.10;48.00
59025;DHT22;44806;48.008;13.666;2023-06-26T12:44:19;31.20;46.00
59025;DHT22;44806;48.008;13.666;2023-06-26T12:46:48;31.30;48.20
59025;DHT22;44806;48.008;13.666;2023-06-26T12:49:15;31.20;45.90
59025;DHT22;44806;48.008;13.666;2023-06-26T12:51:43;31.20;47.50
59025;DHT22;44806;48.008;13.666;2023-06-26T12:54:10;31.30;47.40
59025;DHT22;44806;48.008;13.666;2023-06-26T12:56:38;31.50;48.80
59025;DHT22;44806;48.008;13.666;2023-06-26T12:59:06;31.50;46.10
59025;DHT22;44806;48.008;13.666;2023-06-26T13:01:33;31.50;46.50
59025;DHT22;44806;48.008;13.666;2023-06-26T13:04:00;31.40;46.10
59025;DHT22;44806;48.008;13.666;2023-06-26T13:06:27;31.40;48.10
59025;DHT22;44806;48.008;13.666;2023-06-26T13:08:54;31.80;48.60
59025;DHT22;44806;48.008;13.666;2023-06-26T13:11:21;32.10;49.20
59025;DHT22;44806;48.008;13.666;2023-06-26T13:13:48;32.20;48.60
59025;DHT22;44806;48.008;13.666;2023-06-26T13:16:16;32.20;47.50
59025;DHT22;44806;48.008;13.666;2023-06-26T13:18:44;32.10;47.00
59025;DHT22;44806;48.008;13.666;2023-06-26T13:21:12;32.00;48.50
59025;DHT22;44806;48.008;13.666;2023-06-26T13:23:39;32.00;46.10
59025;DHT22;44806;48.008;13.666;2023-06-26T13:26:07;31.70;47.10
59025;DHT22;44806;48.008;13.666;2023-06-26T13:28:34;31.60;46.20
59025;DHT22;44806;48.008;13.666;2023-06-26T13:31:00;31.70;48.40
59025;DHT22;44806;48.008;13.666;2023-06-26T13:33:29;31.80;49.10
59025;DHT22;44806;48.008;13.666;2023-06-26T13:35:56;32.00;47.70
59025;DHT22;44806;48.008;13.666;2023-06-26T13:38:24;32.40;47.90
59025;DHT22;44806;48.008;13.666;2023-06-26T13:40:51;32.60;47.00
59025;DHT22;44806;48.008;13.666;2023-06-26T13:43:19;32.40;46.20
59025;DHT22;44806;48.008;13.666;2023-06-26T13:45:47;32.60;46.50
59025;DHT22;44806;48.008;13.666;2023-06-26T13:48:14;32.90;45.90
59025;DHT22;44806;48.008;13.666;2023-06-26T13:50:42;32.30;44.50
59025;DHT22;44806;48.008;13.666;2023-06-26T13:53:09;32.40;46.40
59025;DHT22;44806;48.008;13.666;2023-06-26T13:55:36;32.70;45.90
59025;DHT22;44806;48.008;13.666;2023-06-26T13:58:04;32.40;44.80
59025;DHT22;44806;48.008;13.666;2023-06-26T14:00:31;32.40;46.20
59025;DHT22;44806;48.008;13.666;2023-06-26T14:02:59;32.00;45.20
59025;DHT22;44806;48.008;13.666;2023-06-26T14:05:26;32.00;47.20
59025;DHT22;44806;48.008;13.666;2023-06-26T14:07:54;31.80;45.40
59025;DHT22;44806;48.008;13.666;2023-06-26T14:10:22;31.50;45.90
59025;DHT22;44806;48.008;13.666;2023-06-26T14:12:49;31.50;48.20
59025;DHT22;44806;48.008;13.666;2023-06-26T14:15:16;31.70;47.50
59025;DHT22;44806;48.008;13.666;2023-06-26T14:17:43;31.70;45.30
59025;DHT22;44806;48.008;13.666;2023-06-26T14:20:11;31.70;45.60
59025;DHT22;44806;48.008;13.666;2023-06-26T14:22:39;31.90;47.30
59025;DHT22;44806;48.008;13.666;2023-06-26T14:25:08;31.70;44.40
59025;DHT22;44806;48.008;13.666;2023-06-26T14:27:36;31.70;45.80
59025;DHT22;44806;48.008;13.666;2023-06-26T14:30:05;31.70;48.30
59025;DHT22;44806;48.008;13.666;2023-06-26T14:32:33;32.10;50.00
59025;DHT22;44806;48.008;13.666;2023-06-26T14:35:00;31.70;43.80
59025;DHT22;44806;48.008;13.666;2023-06-26T14:37:29;31.70;45.60
59025;DHT22;44806;48.008;13.666;2023-06-26T14:39:57;32.00;48.50
59025;DHT22;44806;48.008;13.666;2023-06-26T14:42:26;32.50;45.20
59025;DHT22;44806;48.008;13.666;2023-06-26T14:44:52;32.90;45.60
59025;DHT22;44806;48.008;13.666;2023-06-26T14:47:19;33.50;44.00
59025;DHT22;44806;48.008;13.666;2023-06-26T14:49:46;33.60;44.60
59025;DHT22;44806;48.008;13.666;2023-06-26T14:52:13;33.70;45.00
59025;DHT22;44806;48.008;13.666;2023-06-26T14:54:40;33.40;43.10
59025;DHT22;44806;48.008;13.666;2023-06-26T14:57:07;33.10;44.50
59025;DHT22;44806;48.008;13.666;2023-06-26T14:59:35;33.20;46.00
59025;DHT22;44806;48.008;13.666;2023-06-26T15:02:02;33.60;46.30
59025;DHT22;44806;48.008;13.666;2023-06-26T15:04:29;33.40;44.00
59025;DHT22;44806;48.008;13.666;2023-06-26T15:06:57;33.20;45.30
59025;DHT22;44806;48.008;13.666;2023-06-26T15:09:24;33.10;46.20
59025;DHT22;44806;48.008;13.666;2023-06-26T15:11:51;33.00;46.50
59025;DHT22;44806;48.008;13.666;2023-06-26T15:14:18;32.90;45.00
59025;DHT22;44806;48.008;13.666;2023-06-26T15:16:46;32.70;44.70
59025;DHT22;44806;48.008;13.666;2023-06-26T15:19:13;32.80;45.10
59025;DHT22;44806;48.008;13.666;2023-06-26T15:21:40;32.60;44.60
59025;DHT22;44806;48.008;13.666;2023-06-26T15:24:07;32.80;47.10